createdAt,value
2024-04-13T00:00:29.491Z,99.99
2024-04-13T00:01:29.506Z,99.99
2024-04-13T00:02:29.472Z,99.99
2024-04-13T00:03:29.503Z,99.99
2024-04-13T00:04:29.485Z,99.99
2024-04-13T00:05:29.442Z,99.99
2024-04-13T00:06:29.438Z,99.99
2024-04-13T00:07:29.414Z,99.99
2024-04-13T00:08:29.404Z,99.99
2024-04-13T00:09:29.443Z,99.99
2024-04-13T00:10:29.395Z,99.99
2024-04-13T00:11:29.375Z,99.99
2024-04-13T00:12:29.511Z,99.99
2024-04-13T00:13:29.351Z,99.99
2024-04-13T00:14:29.359Z,99.99
2024-04-13T00:15:29.396Z,99.99
2024-04-13T00:16:29.378Z,99.99
2024-04-13T00:17:29.375Z,99.99
2024-04-13T00:18:29.330Z,99.99
2024-04-13T00:19:29.341Z,99.99
2024-04-13T00:20:29.347Z,99.99
2024-04-13T00:21:29.323Z,99.99
2024-04-13T00:22:29.300Z,99.99
2024-04-13T00:23:29.278Z,99.99
2024-04-13T00:24:29.459Z,99.99
2024-04-13T00:25:29.280Z,99.99
2024-04-13T00:26:29.249Z,99.99
2024-04-13T00:27:29.346Z,99.99
2024-04-13T00:28:29.294Z,99.99
2024-04-13T00:29:29.261Z,99.99
2024-04-13T00:30:29.235Z,99.99
2024-04-13T00:31:29.340Z,99.99
2024-04-13T00:32:29.230Z,99.99
2024-04-13T00:33:29.342Z,99.99
2024-04-13T00:34:29.220Z,99.99
2024-04-13T00:35:29.203Z,99.99
2024-04-13T00:36:29.221Z,99.99
2024-04-13T00:37:32.253Z,99.99
2024-04-13T00:38:30.200Z,99.99
2024-04-13T00:39:29.183Z,99.99
2024-04-13T00:40:29.156Z,99.99
2024-04-13T00:41:29.139Z,99.99
2024-04-13T00:42:29.183Z,99.99
2024-04-13T00:43:29.153Z,99.99
2024-04-13T00:44:29.124Z,99.99
2024-04-13T00:45:29.205Z,99.99
2024-04-13T00:46:29.112Z,99.99
2024-04-13T00:47:29.198Z,99.99
2024-04-13T00:48:29.308Z,99.99
2024-04-13T00:49:29.084Z,99.99
2024-04-13T00:50:29.072Z,99.99
2024-04-13T00:51:29.105Z,99.99
2024-04-13T00:52:29.101Z,99.99
2024-04-13T00:53:29.068Z,99.99
2024-04-13T00:54:29.143Z,99.99
2024-04-13T00:55:29.039Z,99.99
2024-04-13T00:56:29.027Z,99.99
2024-04-13T00:57:29.070Z,99.99
2024-04-13T00:58:29.015Z,99.99
2024-04-13T00:59:29.022Z,99.99
2024-04-13T01:00:29.101Z,99.99
2024-04-13T01:01:28.990Z,99.99
2024-04-13T01:02:29.010Z,99.99
2024-04-13T01:03:29.197Z,99.99
2024-04-13T01:04:28.961Z,99.99
2024-04-13T01:05:28.962Z,99.99
2024-04-13T01:06:29.003Z,99.99
2024-04-13T01:07:28.969Z,99.99
2024-04-13T01:08:28.932Z,99.99
2024-04-13T01:09:28.965Z,99.99
2024-04-13T01:10:28.914Z,99.99
2024-04-13T01:11:28.962Z,99.99
2024-04-13T01:12:28.950Z,99.99
2024-04-13T01:13:28.901Z,99.99
2024-04-13T01:14:28.888Z,99.99
2024-04-13T01:15:28.925Z,99.99
2024-04-13T01:16:28.922Z,99.99
2024-04-13T01:17:28.900Z,99.99
2024-04-13T01:18:28.922Z,99.99
2024-04-13T01:19:28.854Z,99.99
2024-04-13T01:20:28.865Z,99.99
2024-04-13T01:21:28.859Z,99.99
2024-04-13T01:22:28.829Z,99.99
2024-04-13T01:23:28.820Z,99.99
2024-04-13T01:24:28.844Z,99.99
2024-04-13T01:25:28.826Z,99.99
2024-04-13T01:26:28.819Z,99.99
2024-04-13T01:27:28.824Z,99.99
2024-04-13T01:28:30.965Z,99.99
2024-04-13T01:29:29.795Z,99.99
2024-04-13T01:30:28.797Z,99.99
2024-04-13T01:31:28.756Z,99.99
2024-04-13T01:32:28.941Z,99.99
2024-04-13T01:33:28.802Z,99.99
2024-04-13T01:34:28.749Z,99.99
2024-04-13T01:35:28.748Z,99.99
2024-04-13T01:36:28.761Z,99.99
2024-04-13T01:37:28.720Z,99.99
2024-04-13T01:38:28.705Z,99.99
2024-04-13T01:39:28.719Z,99.99
2024-04-13T01:40:28.720Z,99.99
2024-04-13T01:41:28.686Z,99.99
2024-04-13T01:42:28.722Z,99.99
2024-04-13T01:43:28.668Z,99.99
2024-04-13T01:44:28.726Z,99.99
2024-04-13T01:45:28.701Z,99.99
2024-04-13T01:46:28.646Z,99.99
2024-04-13T01:47:28.739Z,99.99
2024-04-13T01:48:28.703Z,99.99
2024-04-13T01:49:28.668Z,99.99
2024-04-13T01:50:28.610Z,99.99
2024-04-13T01:51:28.650Z,99.99
2024-04-13T01:52:28.594Z,99.99
2024-04-13T01:53:28.585Z,99.99
2024-04-13T01:54:28.642Z,99.99
2024-04-13T01:55:28.570Z,99.99
2024-04-13T01:56:28.566Z,99.99
2024-04-13T01:57:28.600Z,99.99
2024-04-13T01:58:28.561Z,99.99
2024-04-13T01:59:28.574Z,99.99
2024-04-13T02:00:28.670Z,99.99
2024-04-13T02:01:28.572Z,99.99
2024-04-13T02:02:28.559Z,99.99
2024-04-13T02:03:28.625Z,99.99
2024-04-13T02:04:28.536Z,99.99
2024-04-13T02:05:28.540Z,99.99
2024-04-13T02:06:28.519Z,99.99
2024-04-13T02:07:28.483Z,99.99
2024-04-13T02:08:28.517Z,99.99
2024-04-13T02:09:29.560Z,99.99
2024-04-13T02:10:28.476Z,99.99
2024-04-13T02:11:28.512Z,99.99
2024-04-13T02:12:28.488Z,99.99
2024-04-13T02:13:28.477Z,99.99
2024-04-13T02:14:28.422Z,99.99
2024-04-13T02:15:28.459Z,99.99
2024-04-13T02:16:28.422Z,99.99
2024-04-13T02:17:28.439Z,99.99
2024-04-13T02:18:28.551Z,99.99
2024-04-13T02:19:28.453Z,99.99
2024-04-13T02:20:28.382Z,99.99
2024-04-13T02:21:28.389Z,99.99
2024-04-13T02:22:28.413Z,99.99
2024-04-13T02:23:28.358Z,99.99
2024-04-13T02:24:28.383Z,99.99
2024-04-13T02:25:28.367Z,99.99
2024-04-13T02:26:28.327Z,99.99
2024-04-13T02:27:29.392Z,99.99
2024-04-13T02:28:28.311Z,99.99
2024-04-13T02:29:28.308Z,99.99
2024-04-13T02:30:28.337Z,99.99
2024-04-13T02:31:28.306Z,99.99
2024-04-13T02:32:28.343Z,99.99
2024-04-13T02:33:28.371Z,99.99
2024-04-13T02:34:28.282Z,99.99
2024-04-13T02:35:28.257Z,99.99
2024-04-13T02:36:28.330Z,99.99
2024-04-13T02:37:28.267Z,99.99
2024-04-13T02:38:28.230Z,99.99
2024-04-13T02:39:28.248Z,99.99
2024-04-13T02:40:28.222Z,99.99
2024-04-13T02:41:28.314Z,99.99
2024-04-13T02:42:28.226Z,99.99
2024-04-13T02:43:28.197Z,99.99
2024-04-13T02:44:28.192Z,99.99
2024-04-13T02:45:28.182Z,99.99
2024-04-13T02:46:28.219Z,99.99
2024-04-13T02:47:28.184Z,99.99
2024-04-13T02:48:28.295Z,99.99
2024-04-13T02:49:28.196Z,99.99
2024-04-13T02:50:28.138Z,99.99
2024-04-13T02:51:28.210Z,99.99
2024-04-13T02:52:28.122Z,99.99
2024-04-13T02:53:28.117Z,99.99
2024-04-13T02:54:28.139Z,99.99
2024-04-13T02:55:28.130Z,99.99
2024-04-13T02:56:28.139Z,99.99
2024-04-13T02:57:28.107Z,99.99
2024-04-13T02:58:28.087Z,99.99
2024-04-13T02:59:28.086Z,99.99
2024-04-13T03:00:28.098Z,99.99
2024-04-13T03:01:28.095Z,99.99
2024-04-13T03:02:28.070Z,99.99
2024-04-13T03:03:28.159Z,99.99
2024-04-13T03:04:28.095Z,99.99
2024-04-13T03:05:28.031Z,99.99
2024-04-13T03:06:28.098Z,99.99
2024-04-13T03:07:28.016Z,99.99
2024-04-13T03:08:28.006Z,99.99
2024-04-13T03:09:28.074Z,99.99
2024-04-13T03:10:28.015Z,99.99
2024-04-13T03:11:28.085Z,99.99
2024-04-13T03:12:28.110Z,99.99
2024-04-13T03:13:27.961Z,99.99
2024-04-13T03:14:27.954Z,99.99
2024-04-13T03:15:27.985Z,99.99
2024-04-13T03:16:28.963Z,99.99
2024-04-13T03:17:28.043Z,99.99
2024-04-13T03:18:27.949Z,99.99
2024-04-13T03:19:27.923Z,99.99
2024-04-13T03:20:27.933Z,99.99
2024-04-13T03:21:27.928Z,99.99
2024-04-13T03:22:27.893Z,99.99
2024-04-13T03:23:27.886Z,99.99
2024-04-13T03:24:27.933Z,99.99
2024-04-13T03:25:27.895Z,99.99
2024-04-13T03:26:27.893Z,99.99
2024-04-13T03:27:27.910Z,99.99
2024-04-13T03:28:27.856Z,99.99
2024-04-13T03:29:27.889Z,99.99
2024-04-13T03:30:27.897Z,99.99
2024-04-13T03:31:27.857Z,99.99
2024-04-13T03:32:27.922Z,99.99
2024-04-13T03:33:27.881Z,99.99
2024-04-13T03:34:27.828Z,99.99
2024-04-13T03:35:27.792Z,99.99
2024-04-13T03:36:27.832Z,99.99
2024-04-13T03:37:27.788Z,99.99
2024-04-13T03:38:27.788Z,99.99
2024-04-13T03:39:27.832Z,99.99
2024-04-13T03:40:27.764Z,99.99
2024-04-13T03:41:27.775Z,99.99
2024-04-13T03:42:27.770Z,99.99
2024-04-13T03:43:27.747Z,99.99
2024-04-13T03:44:27.756Z,99.99
2024-04-13T03:45:27.786Z,99.99
2024-04-13T03:46:27.730Z,99.99
2024-04-13T03:47:27.780Z,99.99
2024-04-13T03:48:27.862Z,99.99
2024-04-13T03:49:27.692Z,99.99
2024-04-13T03:50:27.674Z,99.99
2024-04-13T03:51:27.709Z,99.99
2024-04-13T03:52:27.672Z,99.99
2024-04-13T03:53:27.702Z,99.99
2024-04-13T03:54:27.687Z,99.99
2024-04-13T03:55:27.630Z,99.99
2024-04-13T03:56:28.640Z,99.99
2024-04-13T03:57:27.648Z,99.99
2024-04-13T03:58:27.641Z,99.99
2024-04-13T03:59:27.619Z,99.99
2024-04-13T04:00:27.706Z,99.99
2024-04-13T04:01:27.752Z,99.99
2024-04-13T04:02:27.607Z,99.99
2024-04-13T04:03:27.646Z,99.99
2024-04-13T04:04:27.709Z,99.99
2024-04-13T04:05:27.594Z,99.99
2024-04-13T04:06:27.658Z,99.99
2024-04-13T04:07:27.571Z,99.99
2024-04-13T04:08:27.538Z,99.99
2024-04-13T04:09:27.562Z,99.99
2024-04-13T04:10:28.531Z,99.99
2024-04-13T04:11:27.546Z,99.99
2024-04-13T04:12:27.584Z,99.99
2024-04-13T04:13:27.526Z,99.99
2024-04-13T04:14:27.523Z,99.99
2024-04-13T04:15:27.621Z,99.99
2024-04-13T04:16:27.490Z,99.99
2024-04-13T04:17:27.648Z,99.99
2024-04-13T04:18:27.636Z,99.99
2024-04-13T04:19:27.579Z,99.99
2024-04-13T04:20:27.587Z,99.99
2024-04-13T04:21:27.571Z,99.99
2024-04-13T04:22:27.533Z,99.99
2024-04-13T04:23:27.500Z,99.99
2024-04-13T04:24:27.471Z,99.99
2024-04-13T04:25:27.415Z,99.99
2024-04-13T04:26:27.461Z,99.99
2024-04-13T04:27:27.418Z,99.99
2024-04-13T04:28:27.404Z,99.99
2024-04-13T04:29:27.377Z,99.99
2024-04-13T04:30:27.425Z,99.99
2024-04-13T04:31:27.407Z,99.99
2024-04-13T04:32:27.396Z,99.99
2024-04-13T04:33:27.516Z,99.99
2024-04-13T04:34:27.340Z,99.99
2024-04-13T04:35:27.357Z,99.99
2024-04-13T04:36:27.414Z,99.99
2024-04-13T04:37:27.318Z,99.99
2024-04-13T04:38:27.306Z,99.99
2024-04-13T04:39:27.381Z,99.99
2024-04-13T04:40:27.308Z,99.99
2024-04-13T04:41:27.422Z,99.99
2024-04-13T04:42:27.311Z,99.99
2024-04-13T04:43:27.286Z,99.99
2024-04-13T04:44:27.272Z,99.99
2024-04-13T04:45:27.286Z,99.99
2024-04-13T04:46:27.307Z,99.99
2024-04-13T04:47:27.337Z,99.99
2024-04-13T04:48:27.370Z,99.99
2024-04-13T04:49:27.220Z,99.99
2024-04-13T04:50:27.252Z,99.99
2024-04-13T04:51:27.227Z,99.99
2024-04-13T04:52:27.206Z,99.99
2024-04-13T04:53:27.221Z,99.99
2024-04-13T04:54:27.232Z,99.99
2024-04-13T04:55:27.209Z,99.99
2024-04-13T04:56:27.172Z,99.99
2024-04-13T04:57:27.168Z,99.99
2024-04-13T04:58:27.146Z,99.99
2024-04-13T04:59:27.143Z,99.99
2024-04-13T05:00:27.255Z,99.99
2024-04-13T05:01:27.185Z,99.99
2024-04-13T05:02:27.160Z,99.99
2024-04-13T05:03:27.165Z,99.99
2024-04-13T05:04:27.182Z,99.99
2024-04-13T05:05:27.132Z,99.99
2024-04-13T05:06:27.166Z,99.10
2024-04-13T05:07:27.088Z,98.95
2024-04-13T05:08:27.077Z,97.12
2024-04-13T05:09:27.160Z,97.64
2024-04-13T05:10:27.102Z,96.43
2024-04-13T05:11:27.059Z,94.14
2024-04-13T05:12:27.050Z,92.26
2024-04-13T05:13:27.035Z,91.97
2024-04-13T05:14:27.054Z,89.75
2024-04-13T05:15:27.056Z,88.69
2024-04-13T05:16:27.010Z,87.85
2024-04-13T05:17:27.051Z,85.33
2024-04-13T05:18:27.248Z,84.01
2024-04-13T05:19:27.130Z,84.91
2024-04-13T05:20:26.990Z,85.86
2024-04-13T05:21:26.987Z,86.00
2024-04-13T05:22:26.978Z,85.94
2024-04-13T05:23:27.000Z,86.16
2024-04-13T05:24:27.074Z,84.12
2024-04-13T05:25:26.950Z,81.81
2024-04-13T05:26:26.966Z,81.46
2024-04-13T05:27:26.979Z,82.14
2024-04-13T05:28:26.947Z,80.96
2024-04-13T05:29:26.914Z,81.49
2024-04-13T05:30:26.977Z,79.15
2024-04-13T05:31:26.894Z,78.88
2024-04-13T05:32:26.938Z,78.78
2024-04-13T05:33:27.022Z,78.95
2024-04-13T05:34:26.871Z,78.92
2024-04-13T05:35:26.871Z,79.08
2024-04-13T05:36:26.904Z,78.20
2024-04-13T05:37:26.874Z,77.36
2024-04-13T05:38:26.879Z,76.95
2024-04-13T05:39:26.885Z,76.72
2024-04-13T05:40:26.830Z,76.07
2024-04-13T05:41:26.830Z,74.83
2024-04-13T05:42:26.848Z,75.27
2024-04-13T05:43:26.797Z,74.35
2024-04-13T05:44:26.805Z,74.26
2024-04-13T05:45:26.808Z,73.35
2024-04-13T05:46:26.801Z,71.23
2024-04-13T05:47:58.740Z,69.99
2024-04-13T05:48:26.812Z,68.45
2024-04-13T05:49:26.758Z,69.46
2024-04-13T05:50:26.808Z,67.29
2024-04-13T05:51:26.793Z,65.42
2024-04-13T05:52:26.756Z,65.01
2024-04-13T05:53:26.772Z,65.42
2024-04-13T05:54:26.744Z,64.81
2024-04-13T05:55:26.712Z,64.92
2024-04-13T05:56:26.717Z,64.81
2024-04-13T05:57:27.745Z,67.38
2024-04-13T05:58:26.687Z,69.09
2024-04-13T05:59:26.685Z,70.03
2024-04-13T06:00:26.760Z,71.10
2024-04-13T06:01:26.718Z,71.50
2024-04-13T06:02:26.674Z,70.66
2024-04-13T06:03:26.653Z,69.39
2024-04-13T06:04:26.702Z,69.89
2024-04-13T06:05:26.706Z,68.55
2024-04-13T06:06:26.685Z,70.03
2024-04-13T06:07:26.616Z,70.32
2024-04-13T06:08:26.623Z,70.29
2024-04-13T06:09:26.629Z,70.50
2024-04-13T06:10:26.649Z,70.83
2024-04-13T06:11:26.629Z,70.83
2024-04-13T06:12:26.620Z,71.03
2024-04-13T06:13:26.590Z,70.19
2024-04-13T06:14:26.582Z,69.96
2024-04-13T06:15:26.619Z,69.73
2024-04-13T06:16:26.658Z,69.29
2024-04-13T06:17:26.554Z,68.46
2024-04-13T06:18:26.564Z,68.55
2024-04-13T06:19:26.545Z,68.69
2024-04-13T06:20:26.552Z,70.16
2024-04-13T06:21:26.563Z,70.36
2024-04-13T06:22:26.508Z,69.73
2024-04-13T06:23:26.504Z,68.85
2024-04-13T06:24:26.590Z,67.89
2024-04-13T06:25:28.690Z,67.52
2024-04-13T06:26:27.481Z,68.42
2024-04-13T06:27:26.537Z,68.46
2024-04-13T06:28:26.469Z,67.43
2024-04-13T06:29:26.492Z,66.59
2024-04-13T06:30:26.459Z,65.96
2024-04-13T06:31:27.446Z,65.66
2024-04-13T06:32:26.441Z,64.73
2024-04-13T06:33:26.492Z,64.40
2024-04-13T06:34:26.507Z,64.04
2024-04-13T06:35:26.419Z,63.71
2024-04-13T06:36:26.424Z,63.24
2024-04-13T06:37:26.415Z,62.59
2024-04-13T06:38:26.429Z,62.01
2024-04-13T06:39:26.463Z,63.51
2024-04-13T06:40:27.390Z,63.41
2024-04-13T06:41:26.380Z,62.35
2024-04-13T06:42:26.383Z,61.83
2024-04-13T06:43:26.412Z,61.53
2024-04-13T06:44:26.355Z,63.41
2024-04-13T06:45:26.369Z,64.17
2024-04-13T06:46:26.374Z,64.34
2024-04-13T06:47:26.358Z,65.40
2024-04-13T06:48:26.370Z,65.33
2024-04-13T06:49:26.342Z,65.83
2024-04-13T06:50:26.318Z,66.00
2024-04-13T06:51:26.306Z,65.50
2024-04-13T06:52:26.303Z,66.09
2024-04-13T06:53:26.324Z,64.90
2024-04-13T06:54:26.313Z,65.26
2024-04-13T06:55:26.285Z,64.37
2024-04-13T06:56:26.297Z,64.44
2024-04-13T06:57:26.306Z,64.15
2024-04-13T06:58:26.293Z,62.42
2024-04-13T06:59:26.257Z,62.19
2024-04-13T07:00:26.257Z,61.63
2024-04-13T07:01:26.265Z,62.26
2024-04-13T07:02:26.281Z,63.42
2024-04-13T07:03:26.378Z,63.28
2024-04-13T07:04:26.301Z,63.05
2024-04-13T07:05:26.213Z,63.02
2024-04-13T07:06:26.232Z,61.47
2024-04-13T07:07:26.261Z,62.10
2024-04-13T07:08:27.200Z,61.90
2024-04-13T07:09:26.204Z,62.19
2024-04-13T07:10:26.176Z,62.16
2024-04-13T07:11:26.184Z,61.77
2024-04-13T07:12:26.204Z,61.57
2024-04-13T07:13:26.154Z,62.16
2024-04-13T07:14:26.155Z,62.32
2024-04-13T07:15:26.165Z,63.08
2024-04-13T07:16:26.190Z,65.26
2024-04-13T07:17:26.173Z,65.14
2024-04-13T07:18:26.154Z,66.73
2024-04-13T07:19:26.137Z,66.56
2024-04-13T07:20:26.107Z,65.44
2024-04-13T07:21:26.167Z,65.64
2024-04-13T07:22:26.098Z,64.67
2024-04-13T07:23:26.099Z,63.55
2024-04-13T07:24:26.109Z,64.09
2024-04-13T07:25:26.091Z,63.89
2024-04-13T07:26:26.115Z,63.49
2024-04-13T07:27:26.112Z,63.22
2024-04-13T07:28:26.059Z,63.56
2024-04-13T07:29:26.051Z,62.21
2024-04-13T07:30:26.143Z,62.01
2024-04-13T07:31:26.067Z,61.61
2024-04-13T07:32:26.108Z,63.10
2024-04-13T07:33:26.133Z,62.13
2024-04-13T07:34:26.027Z,62.86
2024-04-13T07:35:26.040Z,63.49
2024-04-13T07:36:26.051Z,63.89
2024-04-13T07:37:25.999Z,63.92
2024-04-13T07:38:26.038Z,63.52
2024-04-13T07:39:26.026Z,63.85
2024-04-13T07:40:26.040Z,66.20
2024-04-13T07:41:25.966Z,65.20
2024-04-13T07:42:26.038Z,66.07
2024-04-13T07:43:25.977Z,65.27
2024-04-13T07:44:25.950Z,64.37
2024-04-13T07:45:26.015Z,65.87
2024-04-13T07:46:25.943Z,65.97
2024-04-13T07:47:26.019Z,65.84
2024-04-13T07:48:26.127Z,66.07
2024-04-13T07:49:25.951Z,64.45
2024-04-13T07:50:25.969Z,65.14
2024-04-13T07:51:25.934Z,64.51
2024-04-13T07:52:25.908Z,64.51
2024-04-13T07:53:25.894Z,65.74
2024-04-13T07:54:25.933Z,66.34
2024-04-13T07:55:25.901Z,66.93
2024-04-13T07:56:25.895Z,68.26
2024-04-13T07:57:25.895Z,68.36
2024-04-13T07:58:25.883Z,68.13
2024-04-13T07:59:25.882Z,68.10
2024-04-13T08:00:25.893Z,67.80
2024-04-13T08:01:25.873Z,66.77
2024-04-13T08:02:25.848Z,67.10
2024-04-13T08:03:26.070Z,67.03
2024-04-13T08:04:25.992Z,68.03
2024-04-13T08:05:25.808Z,67.36
2024-04-13T08:06:25.810Z,69.96
2024-04-13T08:07:25.810Z,70.49
2024-04-13T08:08:25.787Z,70.39
2024-04-13T08:09:25.851Z,70.46
2024-04-13T08:10:25.787Z,69.82
2024-04-13T08:11:25.772Z,70.26
2024-04-13T08:12:25.778Z,69.86
2024-04-13T08:13:26.787Z,70.96
2024-04-13T08:14:25.777Z,69.69
2024-04-13T08:15:25.762Z,69.06
2024-04-13T08:16:25.764Z,69.69
2024-04-13T08:17:25.741Z,69.29
2024-04-13T08:18:25.787Z,70.23
2024-04-13T08:19:25.722Z,70.62
2024-04-13T08:20:25.712Z,69.36
2024-04-13T08:21:25.785Z,69.86
2024-04-13T08:22:25.706Z,69.06
2024-04-13T08:23:25.706Z,69.59
2024-04-13T08:24:25.696Z,69.39
2024-04-13T08:25:25.669Z,69.20
2024-04-13T08:26:25.674Z,69.69
2024-04-13T08:27:25.692Z,70.12
2024-04-13T08:28:26.680Z,69.99
2024-04-13T08:29:25.643Z,69.79
2024-04-13T08:30:25.708Z,69.49
2024-04-13T08:31:25.702Z,69.46
2024-04-13T08:32:25.652Z,69.43
2024-04-13T08:33:25.744Z,67.50
2024-04-13T08:34:25.617Z,68.86
2024-04-13T08:35:25.615Z,70.56
2024-04-13T08:36:25.654Z,70.39
2024-04-13T08:37:25.627Z,70.09
2024-04-13T08:38:25.593Z,69.76
2024-04-13T08:39:25.624Z,69.76
2024-04-13T08:40:25.578Z,69.02
2024-04-13T08:41:25.564Z,69.29
2024-04-13T08:42:25.605Z,68.37
2024-04-13T08:43:25.553Z,68.30
2024-04-13T08:44:25.548Z,68.86
2024-04-13T08:45:25.569Z,68.16
2024-04-13T08:46:25.526Z,68.16
2024-04-13T08:47:25.546Z,67.73
2024-04-13T08:48:25.646Z,67.93
2024-04-13T08:49:25.590Z,67.83
2024-04-13T08:50:25.499Z,68.66
2024-04-13T08:51:25.587Z,67.03
2024-04-13T08:52:25.515Z,67.77
2024-04-13T08:53:25.489Z,67.07
2024-04-13T08:54:25.511Z,68.37
2024-04-13T08:55:25.497Z,68.60
2024-04-13T08:56:25.508Z,69.82
2024-04-13T08:57:25.525Z,70.95
2024-04-13T08:58:25.446Z,70.39
2024-04-13T08:59:25.456Z,70.59
2024-04-13T09:00:25.480Z,71.62
2024-04-13T09:01:25.525Z,72.06
2024-04-13T09:02:25.522Z,71.56
2024-04-13T09:03:25.579Z,72.06
2024-04-13T09:04:25.454Z,73.09
2024-04-13T09:05:25.430Z,72.16
2024-04-13T09:06:25.436Z,73.29
2024-04-13T09:07:27.499Z,72.06
2024-04-13T09:08:26.384Z,71.62
2024-04-13T09:09:25.417Z,72.76
2024-04-13T09:10:25.399Z,71.56
2024-04-13T09:11:25.389Z,72.86
2024-04-13T09:12:25.366Z,72.89
2024-04-13T09:13:25.346Z,73.09
2024-04-13T09:14:25.333Z,72.99
2024-04-13T09:15:25.439Z,73.16
2024-04-13T09:16:25.320Z,72.96
2024-04-13T09:17:25.357Z,72.26
2024-04-13T09:18:25.431Z,73.12
2024-04-13T09:19:25.349Z,73.16
2024-04-13T09:20:25.309Z,72.76
2024-04-13T09:21:25.317Z,73.06
2024-04-13T09:22:25.296Z,73.16
2024-04-13T09:23:25.267Z,73.02
2024-04-13T09:24:25.309Z,72.39
2024-04-13T09:25:25.260Z,71.59
2024-04-13T09:26:25.255Z,71.99
2024-04-13T09:27:25.331Z,73.19
2024-04-13T09:28:25.232Z,73.05
2024-04-13T09:29:25.244Z,72.02
2024-04-13T09:30:25.244Z,70.92
2024-04-13T09:31:25.217Z,71.42
2024-04-13T09:32:25.674Z,70.89
2024-04-13T09:33:25.335Z,71.59
2024-04-13T09:34:25.218Z,70.83
2024-04-13T09:35:25.237Z,70.62
2024-04-13T09:36:25.243Z,71.19
2024-04-13T09:37:25.168Z,71.05
2024-04-13T09:38:25.214Z,70.39
2024-04-13T09:39:25.202Z,69.69
2024-04-13T09:40:26.145Z,68.90
2024-04-13T09:41:25.133Z,68.73
2024-04-13T09:42:25.186Z,69.85
2024-04-13T09:43:25.139Z,70.26
2024-04-13T09:44:25.127Z,68.13
2024-04-13T09:45:25.192Z,68.93
2024-04-13T09:46:25.101Z,68.00
2024-04-13T09:47:25.098Z,67.44
2024-04-13T09:48:25.179Z,66.78
2024-04-13T09:49:25.205Z,67.90
2024-04-13T09:50:25.064Z,66.64
2024-04-13T09:51:25.062Z,67.54
2024-04-13T09:52:25.075Z,67.54
2024-04-13T09:53:25.073Z,66.84
2024-04-13T09:54:25.039Z,68.46
2024-04-13T09:55:25.071Z,68.43
2024-04-13T09:56:25.020Z,67.83
2024-04-13T09:57:25.062Z,67.70
2024-04-13T09:58:25.009Z,67.21
2024-04-13T09:59:25.001Z,66.51
2024-04-13T10:00:25.134Z,67.00
2024-04-13T10:01:25.187Z,67.11
2024-04-13T10:02:25.091Z,68.66
2024-04-13T10:03:25.154Z,67.86
2024-04-13T10:04:25.021Z,67.86
2024-04-13T10:05:24.960Z,67.67
2024-04-13T10:06:24.985Z,68.04
2024-04-13T10:07:24.985Z,68.86
2024-04-13T10:08:24.931Z,67.47
2024-04-13T10:09:24.997Z,68.56
2024-04-13T10:10:24.930Z,69.59
2024-04-13T10:11:24.972Z,69.09
2024-04-13T10:12:24.941Z,69.29
2024-04-13T10:13:24.909Z,70.32
2024-04-13T10:14:24.915Z,70.72
2024-04-13T10:15:24.920Z,69.06
2024-04-13T10:16:24.905Z,69.56
2024-04-13T10:17:24.922Z,70.03
2024-04-13T10:18:27.154Z,69.13
2024-04-13T10:19:25.846Z,70.09
2024-04-13T10:20:24.875Z,69.29
2024-04-13T10:21:24.898Z,67.24
2024-04-13T10:22:32.277Z,68.13
2024-04-13T10:23:25.820Z,68.53
2024-04-13T10:24:24.853Z,68.60
2024-04-13T10:25:24.832Z,67.10
2024-04-13T10:26:24.815Z,67.90
2024-04-13T10:27:24.819Z,67.00
2024-04-13T10:28:24.787Z,67.67
2024-04-13T10:29:24.800Z,67.44
2024-04-13T10:30:24.809Z,66.11
2024-04-13T10:31:25.801Z,65.61
2024-04-13T10:32:24.762Z,65.09
2024-04-13T10:33:24.798Z,64.32
2024-04-13T10:34:24.768Z,65.42
2024-04-13T10:35:24.758Z,66.61
2024-04-13T10:36:24.753Z,64.95
2024-04-13T10:37:24.720Z,64.85
2024-04-13T10:38:24.704Z,63.85
2024-04-13T10:39:24.765Z,64.98
2024-04-13T10:40:24.714Z,64.58
2024-04-13T10:41:24.687Z,64.85
2024-04-13T10:42:24.678Z,65.15
2024-04-13T10:43:24.669Z,65.64
2024-04-13T10:44:24.741Z,64.45
2024-04-13T10:45:24.690Z,65.42
2024-04-13T10:46:24.642Z,65.72
2024-04-13T10:47:24.675Z,66.24
2024-04-13T10:48:24.705Z,65.15
2024-04-13T10:49:24.710Z,64.85
2024-04-13T10:50:24.614Z,64.42
2024-04-13T10:51:24.650Z,64.52
2024-04-13T10:52:24.613Z,63.23
2024-04-13T10:53:24.616Z,64.29
2024-04-13T10:54:24.666Z,63.20
2024-04-13T10:55:24.571Z,63.30
2024-04-13T10:56:24.573Z,63.17
2024-04-13T10:57:24.596Z,61.98
2024-04-13T10:58:24.576Z,63.96
2024-04-13T10:59:24.542Z,63.57
2024-04-13T11:00:24.563Z,63.64
2024-04-13T11:01:24.638Z,63.70
2024-04-13T11:02:24.539Z,64.12
2024-04-13T11:03:24.600Z,62.46
2024-04-13T11:04:24.509Z,64.25
2024-04-13T11:05:24.496Z,63.13
2024-04-13T11:06:24.506Z,62.07
2024-04-13T11:07:24.488Z,64.32
2024-04-13T11:08:24.500Z,63.53
2024-04-13T11:09:24.500Z,63.13
2024-04-13T11:10:24.480Z,62.73
2024-04-13T11:11:24.469Z,62.13
2024-04-13T11:12:24.481Z,63.20
2024-04-13T11:13:24.468Z,62.34
2024-04-13T11:14:24.428Z,62.30
2024-04-13T11:15:24.473Z,62.90
2024-04-13T11:16:24.417Z,63.07
2024-04-13T11:17:24.520Z,63.67
2024-04-13T11:18:24.534Z,63.17
2024-04-13T11:19:24.449Z,63.67
2024-04-13T11:20:24.382Z,63.86
2024-04-13T11:21:24.427Z,63.49
2024-04-13T11:22:24.401Z,62.77
2024-04-13T11:23:24.368Z,61.98
2024-04-13T11:24:24.385Z,63.67
2024-04-13T11:25:24.377Z,62.97
2024-04-13T11:26:24.387Z,63.10
2024-04-13T11:27:24.407Z,62.01
2024-04-13T11:28:24.332Z,62.73
2024-04-13T11:29:24.321Z,64.42
2024-04-13T11:30:24.327Z,63.49
2024-04-13T11:31:25.353Z,63.03
2024-04-13T11:32:24.314Z,64.12
2024-04-13T11:33:24.319Z,62.34
2024-04-13T11:34:24.272Z,64.22
2024-04-13T11:35:24.281Z,63.00
2024-04-13T11:36:24.324Z,62.60
2024-04-13T11:37:24.263Z,62.97
2024-04-13T11:38:24.264Z,63.70
2024-04-13T11:39:24.252Z,63.30
2024-04-13T11:40:24.259Z,63.07
2024-04-13T11:41:24.247Z,63.07
2024-04-13T11:42:31.699Z,62.21
2024-04-13T11:43:26.311Z,62.10
2024-04-13T11:44:24.207Z,62.13
2024-04-13T11:45:24.274Z,62.07
2024-04-13T11:46:24.203Z,63.39
2024-04-13T11:47:56.699Z,64.98
2024-04-13T11:48:24.266Z,63.06
2024-04-13T11:49:24.239Z,62.16
2024-04-13T11:50:24.204Z,61.37
2024-04-13T11:51:24.195Z,62.23
2024-04-13T11:52:24.141Z,62.13
2024-04-13T11:53:24.148Z,62.10
2024-04-13T11:54:24.197Z,62.18
2024-04-13T11:55:24.145Z,60.49
2024-04-13T11:56:24.116Z,60.28
2024-04-13T11:57:24.167Z,61.48
2024-04-13T11:58:24.096Z,61.71
2024-04-13T11:59:24.121Z,61.64
2024-04-13T12:00:24.099Z,61.74
2024-04-13T12:01:24.094Z,61.94
2024-04-13T12:02:24.073Z,61.57
2024-04-13T12:03:24.147Z,61.47
2024-04-13T12:04:24.208Z,62.16
2024-04-13T12:05:24.061Z,63.85
2024-04-13T12:06:24.063Z,62.76
2024-04-13T12:07:24.045Z,62.93
2024-04-13T12:08:24.022Z,62.01
2024-04-13T12:09:24.066Z,63.79
2024-04-13T12:10:24.077Z,62.01
2024-04-13T12:11:24.077Z,60.31
2024-04-13T12:12:24.006Z,60.71
2024-04-13T12:13:23.996Z,62.01
2024-04-13T12:14:26.445Z,60.39
2024-04-13T12:15:24.016Z,60.69
2024-04-13T12:16:23.966Z,60.49
2024-04-13T12:17:24.140Z,58.90
2024-04-13T12:18:24.005Z,59.96
2024-04-13T12:19:24.108Z,60.26
2024-04-13T12:20:23.933Z,58.50
2024-04-13T12:21:23.940Z,61.68
2024-04-13T12:22:23.915Z,61.08
2024-04-13T12:23:23.928Z,59.99
2024-04-13T12:24:23.943Z,58.40
2024-04-13T12:25:25.366Z,58.70
2024-04-13T12:26:23.888Z,59.59
2024-04-13T12:27:23.934Z,59.09
2024-04-13T12:28:23.901Z,60.71
2024-04-13T12:29:23.867Z,60.31
2024-04-13T12:30:23.875Z,61.11
2024-04-13T12:31:23.850Z,60.44
2024-04-13T12:32:23.964Z,59.75
2024-04-13T12:33:23.913Z,60.25
2024-04-13T12:34:23.828Z,60.44
2024-04-13T12:35:23.819Z,59.55
2024-04-13T12:36:23.819Z,60.25
2024-04-13T12:37:23.839Z,61.54
2024-04-13T12:38:23.795Z,61.61
2024-04-13T12:39:23.841Z,58.73
2024-04-13T12:40:23.792Z,59.62
2024-04-13T12:41:23.778Z,58.53
2024-04-13T12:42:23.819Z,58.53
2024-04-13T12:43:23.757Z,59.79
2024-04-13T12:44:23.750Z,60.69
2024-04-13T12:45:23.784Z,58.37
2024-04-13T12:46:23.768Z,60.09
2024-04-13T12:47:23.763Z,59.00
2024-04-13T12:48:23.912Z,58.80
2024-04-13T12:49:23.744Z,58.60
2024-04-13T12:50:23.711Z,59.36
2024-04-13T12:51:23.740Z,59.59
2024-04-13T12:52:23.691Z,59.09